Time;durP1;ratioP1;P1;durP2;ratioP2;P2;SDS_P1;SDS_P2;PMS_P1;PMS_P2;Temp;Humidity;BMP_temperature;BMP_pressure;BME280_temperature;BME280_humidity;BME280_pressure;Samples;Min_cycle;Max_cycle;Signal;HPM_P1;HPM_P2
2022/04/22 00:01:11;;;;;;;60.85;33.33;;;6.80;99.90;;;;;;5054481;28;20455;-78
2022/04/22 00:03:37;;;;;;;63.90;32.63;;;6.80;99.90;;;;;;5053112;28;20056;-78
2022/04/22 00:06:03;;;;;;;55.13;32.05;;;6.90;99.90;;;;;;5053170;28;20029;-75
2022/04/22 00:08:30;;;;;;;69.10;33.95;;;6.80;99.90;;;;;;5053187;28;20516;-77
2022/04/22 00:13:39;;;;;;;66.97;35.75;;;6.80;99.90;;;;;;5054646;28;20575;-78
2022/04/22 00:16:06;;;;;;;73.50;36.72;;;6.80;99.90;;;;;;5054092;28;20065;-76
2022/04/22 00:18:32;;;;;;;66.40;35.03;;;6.80;99.90;;;;;;5052761;28;20021;-78
2022/04/22 00:20:58;;;;;;;59.00;34.13;;;6.80;99.90;;;;;;5052823;28;20030;-78
2022/04/22 00:23:25;;;;;;;56.58;33.22;;;6.80;99.90;;;;;;5052889;28;20082;-76
2022/04/22 00:25:50;;;;;;;55.90;33.15;;;6.70;99.90;;;;;;5052961;28;20021;-76
2022/04/22 00:28:16;;;;;;;59.85;35.70;;;6.70;99.90;;;;;;5053920;28;20058;-76
2022/04/22 00:30:41;;;;;;;57.85;34.08;;;6.70;99.90;;;;;;5054023;28;20473;-76
2022/04/22 00:33:07;;;;;;;57.15;34.15;;;6.70;99.90;;;;;;5052590;28;20021;-77
2022/04/22 00:35:33;;;;;;;58.08;34.63;;;6.70;99.90;;;;;;5052466;28;20024;-78
2022/04/22 00:37:59;;;;;;;60.35;35.40;;;6.60;99.90;;;;;;5053947;28;20023;-79
2022/04/22 00:40:25;;;;;;;55.45;34.33;;;6.60;99.90;;;;;;5053941;28;20104;-76
2022/04/22 00:42:50;;;;;;;59.25;32.83;;;6.60;99.90;;;;;;5052562;28;20493;-77
2022/04/22 00:45:19;;;;;;;59.00;33.70;;;6.60;99.90;;;;;;5053703;28;20017;-75
2022/04/22 00:47:45;;;;;;;63.08;35.08;;;6.60;99.90;;;;;;5052338;28;20032;-77
2022/04/22 00:50:11;;;;;;;62.38;36.10;;;6.50;99.90;;;;;;5053608;28;20035;-78
2022/04/22 00:52:37;;;;;;;63.40;38.35;;;6.40;99.90;;;;;;5052485;28;20021;-78
2022/04/22 00:55:03;;;;;;;71.32;38.88;;;6.30;99.90;;;;;;5053485;28;20017;-75
2022/04/22 00:57:32;;;;;;;54.88;34.33;;;6.30;99.90;;;;;;5053535;28;20482;-76
2022/04/22 00:59:57;;;;;;;56.35;34.42;;;6.30;99.90;;;;;;5053461;28;20071;-78
2022/04/22 01:02:23;;;;;;;59.10;34.53;;;6.20;99.90;;;;;;5053483;28;20029;-77
2022/04/22 01:10:18;;;;;;;59.00;34.72;;;6.30;99.90;;;;;;5053647;28;20102;-78
2022/04/22 01:12:43;;;;;;;63.08;35.75;;;6.30;99.90;;;;;;5053294;28;20024;-76
2022/04/22 01:15:09;;;;;;;63.50;36.25;;;6.30;99.90;;;;;;5051775;28;20037;-76
2022/04/22 01:17:35;;;;;;;68.88;37.05;;;6.30;99.90;;;;;;5053384;28;20036;-78
2022/04/22 01:20:01;;;;;;;62.83;37.78;;;6.30;99.90;;;;;;5052149;28;20029;-78
2022/04/22 01:22:27;;;;;;;60.67;35.33;;;6.30;99.90;;;;;;5051804;28;20482;-76
2022/04/22 01:24:59;;;;;;;66.07;39.33;;;6.30;99.90;;;;;;5053175;28;20098;-76
2022/04/22 01:27:29;;;;;;;69.70;38.40;;;6.30;99.90;;;;;;5051951;28;20478;-76
2022/04/22 01:29:55;;;;;;;64.00;36.80;;;6.30;99.90;;;;;;5052696;28;20017;-76
2022/04/22 01:32:21;;;;;;;60.28;36.83;;;6.20;99.90;;;;;;5052929;28;20025;-78
2022/04/22 01:34:46;;;;;;;62.60;37.38;;;6.20;99.90;;;;;;5053119;28;20493;-78
2022/04/22 01:37:12;;;;;;;69.53;37.90;;;6.20;99.90;;;;;;5051869;28;20029;-76
2022/04/22 01:39:38;;;;;;;65.28;39.15;;;6.20;99.90;;;;;;5053123;28;20028;-77
2022/04/22 01:42:06;;;;;;;62.92;35.92;;;6.20;99.90;;;;;;5051783;28;20057;-78
2022/04/22 01:44:32;;;;;;;64.32;39.58;;;6.20;99.90;;;;;;5051618;28;20040;-79
2022/04/22 01:46:58;;;;;;;59.00;36.40;;;6.20;99.90;;;;;;5051598;28;20068;-77
2022/04/22 01:49:23;;;;;;;67.25;39.55;;;6.20;99.90;;;;;;5051685;28;20064;-77
2022/04/22 01:51:49;;;;;;;64.97;34.90;;;6.30;99.90;;;;;;5052973;28;20386;-78
2022/04/22 01:54:16;;;;;;;62.83;35.53;;;6.30;99.90;;;;;;5052867;28;20025;-79
2022/04/22 01:56:41;;;;;;;65.82;37.80;;;6.30;99.90;;;;;;5052831;28;20025;-76
2022/04/22 01:59:07;;;;;;;62.60;35.58;;;6.30;99.90;;;;;;5051587;28;20076;-76
2022/04/22 02:01:33;;;;;;;59.22;33.17;;;6.30;99.90;;;;;;5051506;28;20522;-76
2022/04/22 02:03:58;;;;;;;60.03;33.55;;;6.30;99.90;;;;;;5051382;28;20078;-76
2022/04/22 02:06:24;;;;;;;56.85;32.78;;;6.30;99.90;;;;;;5051504;28;20025;-77
2022/04/22 02:08:49;;;;;;;58.25;32.92;;;6.30;99.90;;;;;;5052873;28;20029;-78
2022/04/22 02:11:16;;;;;;;56.20;31.58;;;6.30;99.90;;;;;;5052545;28;20036;-76
2022/04/22 02:13:42;;;;;;;54.95;31.80;;;6.30;99.90;;;;;;5052502;28;20016;-76
2022/04/22 02:16:08;;;;;;;62.50;34.97;;;6.30;99.90;;;;;;5052444;28;20509;-76
2022/04/22 02:18:36;;;;;;;55.60;31.20;;;6.20;99.90;;;;;;5052700;28;20037;-78
2022/04/22 02:21:04;;;;;;;56.72;31.33;;;6.20;99.90;;;;;;5052551;28;20057;-76
2022/04/22 02:23:30;;;;;;;52.90;29.27;;;6.20;99.90;;;;;;5051618;28;20386;-76
2022/04/22 02:25:55;;;;;;;56.17;31.02;;;6.20;99.90;;;;;;5051371;28;20013;-78
2022/04/22 02:28:33;;;;;;;57.42;32.10;;;6.20;99.90;;;;;;5051296;28;20037;-76
2022/04/22 02:31:09;;;;;;;53.65;30.13;;;6.20;99.90;;;;;;5051260;28;20079;-76
2022/04/22 02:33:37;;;;;;;53.70;28.48;;;6.20;99.90;;;;;;5051298;28;20032;-78
2022/04/22 02:36:03;;;;;;;50.75;29.17;;;6.30;99.90;;;;;;5051255;28;20027;-78
2022/04/22 02:38:30;;;;;;;53.58;29.42;;;6.30;99.90;;;;;;5052473;28;20021;-78
2022/04/22 02:46:24;;;;;;;52.53;29.80;;;6.20;99.90;;;;;;5056478;28;20125;-76
2022/04/22 02:48:51;;;;;;;45.22;26.27;;;6.30;99.90;;;;;;5055895;28;20029;-78
2022/04/22 02:51:17;;;;;;;51.85;28.17;;;6.30;99.90;;;;;;5054730;28;20120;-77
2022/04/22 02:53:43;;;;;;;44.08;24.45;;;6.30;99.90;;;;;;5054663;28;20104;-78
2022/04/22 02:56:09;;;;;;;43.72;24.15;;;6.30;99.90;;;;;;5054671;28;20021;-76
2022/04/22 02:58:35;;;;;;;43.13;25.30;;;6.40;99.90;;;;;;5055638;28;20510;-78
2022/04/22 03:01:02;;;;;;;44.35;25.58;;;6.40;99.90;;;;;;5054330;28;20052;-77
2022/04/22 03:03:28;;;;;;;40.95;24.85;;;6.40;99.90;;;;;;5054369;28;20022;-76
2022/04/22 03:05:54;;;;;;;41.50;23.95;;;6.40;99.90;;;;;;5055471;28;20021;-77
2022/04/22 03:08:20;;;;;;;43.88;23.13;;;6.40;99.90;;;;;;5055358;28;20113;-76
2022/04/22 03:10:48;;;;;;;43.63;24.65;;;6.40;99.90;;;;;;5055464;28;20083;-76
2022/04/22 03:13:14;;;;;;;47.60;24.38;;;6.40;99.90;;;;;;5055445;28;20462;-76
2022/04/22 03:15:41;;;;;;;53.10;26.65;;;6.40;99.90;;;;;;5055522;28;20064;-76
2022/04/22 03:18:07;;;;;;;45.30;26.88;;;6.50;99.90;;;;;;5055535;28;20501;-78
2022/04/22 03:20:32;;;;;;;43.95;26.27;;;6.50;99.90;;;;;;5055437;28;20029;-78
2022/04/22 03:22:58;;;;;;;44.90;25.42;;;6.50;99.90;;;;;;5054038;28;20028;-78
2022/04/22 03:25:24;;;;;;;44.20;25.15;;;6.50;99.90;;;;;;5055225;28;20099;-78
2022/04/22 03:27:51;;;;;;;38.22;23.35;;;6.50;99.90;;;;;;5055241;28;20033;-76
2022/04/22 03:30:17;;;;;;;48.13;27.55;;;6.60;99.90;;;;;;5055243;28;20359;-76
2022/04/22 03:32:43;;;;;;;40.30;24.65;;;6.60;99.90;;;;;;5053945;28;20029;-78
2022/04/22 03:35:09;;;;;;;49.75;27.60;;;6.50;99.90;;;;;;5053870;28;20039;-75
2022/04/22 03:37:35;;;;;;;41.60;25.55;;;6.50;99.90;;;;;;5055084;28;20032;-76
2022/04/22 03:40:02;;;;;;;47.78;28.08;;;6.50;99.90;;;;;;5055089;28;20025;-77
2022/04/22 03:42:29;;;;;;;42.28;23.65;;;6.50;99.90;;;;;;5055009;28;20446;-76
2022/04/22 03:44:58;;;;;;;46.20;26.30;;;6.50;99.90;;;;;;5053687;28;20140;-78
2022/04/22 03:47:24;;;;;;;46.72;26.33;;;6.50;99.90;;;;;;5037453;28;20044;-78
2022/04/22 03:49:50;;;;;;;46.85;25.08;;;6.50;99.90;;;;;;5053566;28;20021;-78
2022/04/22 03:52:15;;;;;;;36.17;20.23;;;6.50;99.90;;;;;;5054677;28;20505;-77
2022/04/22 03:54:41;;;;;;;45.30;26.10;;;6.50;99.90;;;;;;5052779;28;20025;-78
2022/04/22 03:59:54;;;;;;;49.38;25.90;;;6.50;99.90;;;;;;5054657;28;20163;-78
2022/04/22 04:02:20;;;;;;;45.00;25.83;;;6.50;99.90;;;;;;5054601;28;20029;-78
2022/04/22 04:04:45;;;;;;;47.33;26.70;;;6.40;99.90;;;;;;5053254;28;20021;-78
2022/04/22 04:07:11;;;;;;;44.25;25.52;;;6.40;99.90;;;;;;5054249;28;20390;-77
2022/04/22 04:17:49;;;;;;;42.92;24.88;;;6.50;99.90;;;;;;5054639;28;20072;-76
2022/04/22 04:23:14;;;;;;;46.88;25.33;;;6.60;99.90;;;;;;5054525;28;20513;-76
2022/04/22 04:25:40;;;;;;;45.28;26.38;;;6.60;99.90;;;;;;5054167;28;20082;-77
2022/04/22 04:28:10;;;;;;;42.95;24.42;;;6.60;99.90;;;;;;5052769;28;20033;-77
2022/04/22 04:30:40;;;;;;;37.45;23.25;;;6.60;99.90;;;;;;5052834;28;20013;-78
2022/04/22 04:33:07;;;;;;;44.22;26.83;;;6.60;99.90;;;;;;5054100;28;20017;-77
2022/04/22 04:35:34;;;;;;;42.67;24.05;;;6.60;99.90;;;;;;5053957;28;20025;-76
2022/04/22 04:38:00;;;;;;;42.35;24.65;;;6.60;99.90;;;;;;5052583;28;20382;-76
2022/04/22 04:40:26;;;;;;;51.17;28.45;;;6.60;99.90;;;;;;5053861;28;20036;-76
2022/04/22 04:42:54;;;;;;;48.17;26.80;;;6.70;99.90;;;;;;5053777;28;20029;-75
2022/04/22 04:45:20;;;;;;;51.22;31.48;;;6.70;99.90;;;;;;5053730;28;20032;-77
2022/04/22 04:47:46;;;;;;;57.22;31.95;;;6.60;99.90;;;;;;5053481;28;20033;-76
2022/04/22 04:50:12;;;;;;;51.30;27.90;;;6.60;99.90;;;;;;5052303;28;20029;-78
2022/04/22 04:52:39;;;;;;;45.67;28.42;;;6.50;99.90;;;;;;5053561;28;20029;-78
2022/04/22 04:55:06;;;;;;;52.28;31.88;;;6.50;99.90;;;;;;5053570;28;20159;-78
2022/04/22 04:57:32;;;;;;;47.72;28.83;;;6.40;99.90;;;;;;5041630;28;20060;-76
2022/04/22 04:59:57;;;;;;;54.22;30.98;;;6.50;99.90;;;;;;5048859;28;20065;-76
2022/04/22 05:02:23;;;;;;;55.33;30.75;;;6.50;99.90;;;;;;5033531;28;20044;-76
2022/04/22 05:04:49;;;;;;;57.42;28.83;;;6.60;99.90;;;;;;5032517;28;20025;-78
2022/04/22 05:07:14;;;;;;;57.72;29.95;;;6.70;99.90;;;;;;5031615;28;20033;-78
2022/04/22 05:09:40;;;;;;;67.28;30.60;;;6.70;99.90;;;;;;5033336;28;20032;-77
2022/04/22 05:12:06;;;;;;;65.68;29.77;;;6.80;99.90;;;;;;5033370;28;20025;-76
2022/04/22 05:14:31;;;;;;;70.15;30.80;;;6.80;99.90;;;;;;5031820;28;20108;-77
2022/04/22 05:16:57;;;;;;;69.50;32.38;;;6.80;99.90;;;;;;5033996;28;20053;-76
2022/04/22 05:19:23;;;;;;;70.50;30.77;;;6.90;99.90;;;;;;5048088;28;20052;-76
2022/04/22 05:21:49;;;;;;;58.10;29.67;;;6.90;99.90;;;;;;5049644;28;20044;-77
2022/04/22 05:24:15;;;;;;;73.00;32.97;;;6.90;99.90;;;;;;5031095;28;20026;-76
2022/04/22 05:26:41;;;;;;;63.13;30.73;;;7.00;99.90;;;;;;5035410;28;20478;-77
2022/04/22 05:32:36;;;;;;;67.35;29.70;;;7.00;99.90;;;;;;5052175;28;20100;-77
2022/04/22 05:34:39;;;;;;;68.43;28.00;;;7.10;99.90;;;;;;5053087;28;20040;-77
2022/04/22 05:37:05;;;;;;;76.38;32.70;;;7.10;99.90;;;;;;5051195;28;20025;-74
2022/04/22 05:39:30;;;;;;;67.43;31.08;;;7.20;99.90;;;;;;5050720;28;20051;-75
2022/04/22 05:41:56;;;;;;;65.82;29.63;;;7.20;99.90;;;;;;5052592;28;20021;-74
2022/04/22 05:44:22;;;;;;;61.90;30.00;;;7.30;99.90;;;;;;5052721;28;20013;-75
2022/04/22 05:46:48;;;;;;;71.22;32.45;;;7.40;99.90;;;;;;5050341;28;20898;-75
2022/04/22 05:49:13;;;;;;;77.00;30.45;;;7.40;99.90;;;;;;5051382;28;20068;-75
2022/04/22 05:51:39;;;;;;;78.38;33.67;;;7.40;99.90;;;;;;5050381;28;20032;-75
2022/04/22 05:54:04;;;;;;;69.35;31.25;;;7.50;99.90;;;;;;5050503;28;20088;-75
2022/04/22 05:56:30;;;;;;;67.47;32.08;;;7.50;99.90;;;;;;5050490;28;20032;-75
2022/04/22 05:58:57;;;;;;;72.28;34.80;;;7.50;99.90;;;;;;5050581;28;20021;-75
2022/04/22 06:01:22;;;;;;;70.60;32.70;;;7.60;99.90;;;;;;5050578;28;20017;-75
2022/04/22 06:03:48;;;;;;;65.55;29.17;;;7.60;99.90;;;;;;5049335;28;20401;-75
2022/04/22 06:06:14;;;;;;;75.65;33.80;;;7.70;99.90;;;;;;5050683;28;20021;-75
2022/04/22 06:11:23;;;;;;;64.03;29.30;;;7.70;99.90;;;;;;5052783;28;20032;-75
2022/04/22 06:13:49;;;;;;;63.33;29.88;;;7.70;99.90;;;;;;5052481;28;20021;-75
2022/04/22 06:16:15;;;;;;;63.22;31.15;;;7.70;99.90;;;;;;5052476;28;20045;-75
2022/04/22 06:18:40;;;;;;;57.05;27.63;;;7.80;99.90;;;;;;5055045;28;20036;-75
2022/04/22 06:21:06;;;;;;;53.75;24.52;;;7.90;99.90;;;;;;5054936;28;20028;-75
2022/04/22 06:23:31;;;;;;;57.45;26.00;;;7.80;99.90;;;;;;5056356;28;20390;-75
2022/04/22 06:25:57;;;;;;;56.42;25.48;;;7.80;99.90;;;;;;5056111;28;20021;-75
2022/04/22 06:28:23;;;;;;;57.75;27.80;;;7.80;99.90;;;;;;5055983;28;20094;-75
2022/04/22 06:30:49;;;;;;;54.03;24.17;;;7.80;99.90;;;;;;5056270;28;20041;-75
2022/04/22 06:33:16;;;;;;;67.47;28.45;;;7.80;99.90;;;;;;5054885;28;20482;-75
2022/04/22 06:35:41;;;;;;;66.45;29.65;;;7.80;99.90;;;;;;5056281;28;20017;-75
2022/04/22 06:38:08;;;;;;;73.18;31.92;;;7.80;99.90;;;;;;5054893;28;20124;-76
2022/04/22 06:46:03;;;;;;;59.97;26.77;;;7.90;99.90;;;;;;5056247;28;20065;-75
2022/04/22 06:48:30;;;;;;;66.80;28.65;;;7.80;99.90;;;;;;5054611;28;20044;-75
2022/04/22 06:50:59;;;;;;;60.40;27.83;;;7.90;99.90;;;;;;5055958;28;20025;-75
2022/04/22 06:53:25;;;;;;;58.05;26.92;;;7.80;99.90;;;;;;5055756;28;20021;-75
2022/04/22 06:55:53;;;;;;;61.13;28.33;;;7.80;99.90;;;;;;5055595;28;20372;-75
2022/04/22 06:58:19;;;;;;;56.63;26.52;;;7.80;99.90;;;;;;5055719;28;20462;-75
2022/04/22 07:00:46;;;;;;;60.55;26.55;;;7.90;99.90;;;;;;5054444;28;20448;-76
2022/04/22 07:03:14;;;;;;;61.50;28.13;;;7.90;99.90;;;;;;5055852;28;20493;-75
2022/04/22 07:05:41;;;;;;;71.60;29.27;;;7.90;99.90;;;;;;5054593;28;20099;-75
2022/04/22 07:08:11;;;;;;;68.55;29.08;;;8.00;99.90;;;;;;5051388;28;20025;-74
2022/04/22 07:10:37;;;;;;;63.53;29.27;;;7.90;99.90;;;;;;5054515;28;20079;-73
2022/04/22 07:13:04;;;;;;;66.50;27.58;;;7.90;99.90;;;;;;5052821;28;20409;-73
2022/04/22 07:15:30;;;;;;;69.50;29.42;;;7.90;99.90;;;;;;5054264;28;20140;-74
2022/04/22 07:17:56;;;;;;;65.72;29.38;;;7.90;99.90;;;;;;5053398;28;20434;-74
2022/04/22 07:20:22;;;;;;;67.07;30.50;;;7.80;99.90;;;;;;5053723;28;20017;-74
2022/04/22 07:22:48;;;;;;;63.70;28.50;;;7.80;99.90;;;;;;5054544;28;20107;-73
2022/04/22 07:25:15;;;;;;;76.82;34.28;;;7.80;99.90;;;;;;5053057;28;20044;-73
2022/04/22 07:27:44;;;;;;;75.47;32.33;;;7.80;99.90;;;;;;5051686;28;20037;-74
2022/04/22 07:30:15;;;;;;;63.38;28.17;;;7.80;99.90;;;;;;5053789;28;20045;-74
2022/04/22 07:32:41;;;;;;;68.57;29.27;;;7.70;99.90;;;;;;5053446;28;20078;-74
2022/04/22 07:35:12;;;;;;;69.15;32.65;;;7.70;99.90;;;;;;5054128;28;20021;-73
2022/04/22 07:37:38;;;;;;;60.00;27.08;;;7.60;99.90;;;;;;5054845;28;20025;-74
2022/04/22 07:40:04;;;;;;;66.15;28.20;;;7.60;99.90;;;;;;5053265;28;20444;-74
2022/04/22 07:42:32;;;;;;;61.75;27.60;;;7.60;99.90;;;;;;5052578;28;20021;-74
2022/04/22 07:47:44;;;;;;;69.00;31.55;;;7.60;99.90;;;;;;5054479;28;20136;-74
2022/04/22 07:50:10;;;;;;;61.30;27.30;;;7.60;99.90;;;;;;5053176;28;20025;-73
2022/04/22 07:52:36;;;;;;;60.15;27.63;;;7.60;99.90;;;;;;5054320;28;20445;-73
2022/04/22 07:55:03;;;;;;;67.97;29.08;;;7.50;99.90;;;;;;5054252;28;20009;-74
2022/04/22 07:57:29;;;;;;;64.97;30.85;;;7.60;99.90;;;;;;5054201;28;20120;-74
2022/04/22 07:59:55;;;;;;;67.40;31.15;;;7.70;99.90;;;;;;5054373;28;20028;-74
2022/04/22 08:02:22;;;;;;;65.00;27.15;;;7.70;99.90;;;;;;5054592;28;20366;-74
2022/04/22 08:04:47;;;;;;;63.45;26.98;;;7.70;99.90;;;;;;5053195;28;20059;-74
2022/04/22 08:07:14;;;;;;;62.83;28.63;;;7.70;99.90;;;;;;5054472;28;20430;-74
2022/04/22 08:09:40;;;;;;;66.53;27.33;;;7.70;99.90;;;;;;5054398;28;20021;-73
2022/04/22 08:12:08;;;;;;;63.17;27.25;;;7.50;99.90;;;;;;5054350;28;20025;-73
2022/04/22 08:14:34;;;;;;;59.33;27.08;;;7.60;99.90;;;;;;5054112;28;20029;-73
2022/04/22 08:17:00;;;;;;;56.50;26.98;;;7.50;99.90;;;;;;5054397;28;20442;-73
2022/04/22 08:19:26;;;;;;;63.03;27.63;;;7.50;99.90;;;;;;5054224;28;20031;-74
2022/04/22 08:21:52;;;;;;;67.57;29.05;;;7.50;99.90;;;;;;5052746;28;20394;-73
2022/04/22 08:24:18;;;;;;;71.88;30.38;;;7.50;99.90;;;;;;5053812;28;20024;-74
2022/04/22 08:26:43;;;;;;;62.33;28.45;;;7.40;99.90;;;;;;5053420;28;20119;-74
2022/04/22 08:29:09;;;;;;;66.38;30.23;;;7.40;99.90;;;;;;5052738;28;20443;-74
2022/04/22 08:31:34;;;;;;;63.42;28.15;;;7.40;99.90;;;;;;5054069;28;20021;-73
2022/04/22 08:34:00;;;;;;;76.50;31.48;;;7.40;99.90;;;;;;5052706;28;20021;-74
2022/04/22 08:36:30;;;;;;;67.22;31.50;;;7.30;99.90;;;;;;5053983;28;20486;-73
2022/04/22 08:38:57;;;;;;;68.18;29.52;;;7.30;99.90;;;;;;5052795;28;20028;-74
2022/04/22 08:41:23;;;;;;;71.70;29.75;;;7.30;99.90;;;;;;5052613;28;20017;-74
2022/04/22 08:43:51;;;;;;;62.13;28.10;;;7.40;99.90;;;;;;5053985;28;20029;-74
2022/04/22 08:51:45;;;;;;;42.35;21.70;;;7.40;99.90;;;;;;5053673;28;20040;-73
2022/04/22 08:54:13;;;;;;;41.83;20.35;;;7.40;99.90;;;;;;5052296;28;20017;-74
2022/04/22 08:56:39;;;;;;;41.63;19.15;;;7.40;99.90;;;;;;5053505;28;20025;-74
2022/04/22 08:59:05;;;;;;;42.88;19.58;;;7.40;99.90;;;;;;5053479;28;20032;-74
2022/04/22 09:01:31;;;;;;;41.90;21.58;;;7.50;99.90;;;;;;5053421;28;20031;-73
2022/04/22 09:03:56;;;;;;;38.63;19.10;;;7.50;99.90;;;;;;5053505;28;20025;-74
2022/04/22 09:06:26;;;;;;;44.85;19.42;;;7.50;99.90;;;;;;5053419;28;20028;-74
2022/04/22 09:08:56;;;;;;;39.53;20.20;;;7.50;99.90;;;;;;5053061;28;20039;-74
2022/04/22 09:11:23;;;;;;;40.65;20.55;;;7.50;99.90;;;;;;5053354;28;20052;-73
2022/04/22 09:13:49;;;;;;;46.78;23.65;;;7.50;99.90;;;;;;5052104;28;20494;-73
2022/04/22 09:16:21;;;;;;;47.28;22.70;;;7.50;99.90;;;;;;5052062;28;20071;-74
2022/04/22 09:18:48;;;;;;;;;;;7.50;99.90;;;;;;5052401;28;20513;-74
2022/04/22 09:21:15;;;;;;;38.72;19.55;;;7.50;99.90;;;;;;5052961;28;20338;-74
2022/04/22 09:23:40;;;;;;;36.00;20.60;;;7.40;99.90;;;;;;5053152;28;20021;-74
2022/04/22 09:26:24;;;;;;;40.20;20.55;;;7.40;99.90;;;;;;5053144;28;20390;-73
2022/04/22 09:29:04;;;;;;;38.67;20.38;;;7.40;99.90;;;;;;5053206;28;20040;-74
2022/04/22 09:31:44;;;;;;;32.28;17.15;;;7.50;99.90;;;;;;5053142;28;20032;-74
2022/04/22 09:34:10;;;;;;;32.83;14.05;;;7.50;99.90;;;;;;5051809;28;20028;-73
2022/04/22 09:45:04;;;;;;;19.73;11.63;;;7.70;99.90;;;;;;5052779;28;20063;-74
2022/04/22 09:47:31;;;;;;;19.85;12.63;;;7.90;99.90;;;;;;5052972;28;20398;-74
2022/04/22 09:49:58;;;;;;;20.42;12.63;;;7.90;99.90;;;;;;5053033;28;20017;-74
2022/04/22 09:52:28;;;;;;;20.27;12.57;;;8.00;99.90;;;;;;5055414;28;20028;-74
2022/04/22 09:54:56;;;;;;;20.05;13.10;;;8.20;99.90;;;;;;5056449;28;20013;-75
2022/04/22 09:57:22;;;;;;;23.80;14.52;;;8.20;99.90;;;;;;5057018;28;20029;-74
2022/04/22 09:59:47;;;;;;;22.85;13.25;;;8.40;99.90;;;;;;5056561;28;20036;-75
2022/04/22 10:02:21;;;;;;;25.92;14.25;;;8.50;99.90;;;;;;5055757;28;20045;-74
2022/04/22 10:04:48;;;;;;;27.55;14.52;;;8.60;99.90;;;;;;5055149;28;20021;-75
2022/04/22 10:07:16;;;;;;;27.52;14.35;;;8.80;99.90;;;;;;5055998;28;20128;-74
2022/04/22 10:09:44;;;;;;;23.58;15.52;;;9.00;99.90;;;;;;5055074;28;20044;-75
2022/04/22 10:12:12;;;;;;;26.08;14.05;;;9.00;99.90;;;;;;5056047;28;20021;-75
2022/04/22 10:14:39;;;;;;;27.35;15.30;;;9.00;99.90;;;;;;5055946;28;20022;-74
2022/04/22 10:17:05;;;;;;;25.05;15.57;;;9.10;99.90;;;;;;5055998;28;20037;-74
2022/04/22 10:19:35;;;;;;;28.40;14.73;;;9.10;99.90;;;;;;5056067;28;20427;-75
2022/04/22 10:22:07;;;;;;;23.58;15.00;;;9.20;99.90;;;;;;5054673;28;20464;-74
2022/04/22 10:24:33;;;;;;;26.45;15.35;;;9.30;99.90;;;;;;5054899;28;20013;-73
2022/04/22 10:27:03;;;;;;;24.77;15.73;;;9.40;99.90;;;;;;5055611;28;20510;-74
2022/04/22 10:29:31;;;;;;;22.00;14.73;;;9.50;99.90;;;;;;5055546;28;20557;-74
2022/04/22 10:31:57;;;;;;;23.00;14.85;;;9.40;99.90;;;;;;5054287;28;20036;-74
2022/04/22 10:34:42;;;;;;;24.23;16.63;;;9.50;99.90;;;;;;5055762;28;20021;-75
2022/04/22 10:37:41;;;;;;;26.40;15.27;;;9.50;99.90;;;;;;5054623;28;20049;-74
2022/04/22 10:40:18;;;;;;;26.13;14.70;;;9.60;99.90;;;;;;5032866;28;20037;-74
2022/04/22 10:42:44;;;;;;;24.92;16.60;;;9.50;99.90;;;;;;5055735;28;20090;-75
2022/04/22 10:47:55;;;;;;;21.40;14.20;;;9.80;99.90;;;;;;5055898;28;20604;-74
2022/04/22 10:50:23;;;;;;;23.13;15.45;;;9.90;99.90;;;;;;5055737;28;20068;-74
2022/04/22 10:53:01;;;;;;;21.98;16.48;;;10.00;99.90;;;;;;5055984;28;20045;-77
2022/04/22 10:55:28;;;;;;;19.65;12.90;;;10.20;99.90;;;;;;5055894;28;20070;-76
2022/04/22 10:58:14;;;;;;;23.52;16.77;;;10.10;99.90;;;;;;5054554;28;20447;-76
2022/04/22 11:00:42;;;;;;;23.13;14.45;;;10.20;99.90;;;;;;5051310;28;20029;-74
2022/04/22 11:03:37;;;;;;;21.45;14.07;;;10.40;99.90;;;;;;5052615;28;20021;-75
2022/04/22 11:06:06;;;;;;;17.52;12.20;;;10.60;99.90;;;;;;5035822;28;20064;-77
2022/04/22 11:08:41;;;;;;;18.35;12.63;;;10.50;98.70;;;;;;5034561;28;20030;-74
2022/04/22 11:11:13;;;;;;;17.13;11.82;;;10.20;99.80;;;;;;5035504;28;20352;-74
2022/04/22 11:13:40;;;;;;;22.33;13.98;;;10.30;99.90;;;;;;5035140;28;20033;-75
2022/04/22 11:16:12;;;;;;;20.58;12.18;;;10.30;99.90;;;;;;5035150;28;20403;-74
2022/04/22 11:18:42;;;;;;;18.67;12.10;;;10.30;99.10;;;;;;5035475;28;20113;-75
2022/04/22 11:21:17;;;;;;;21.00;12.48;;;10.30;98.00;;;;;;5033000;28;20506;-74
2022/04/22 11:23:46;;;;;;;22.10;13.65;;;10.40;99.90;;;;;;5037326;28;20048;-75
2022/04/22 11:26:14;;;;;;;18.85;14.07;;;10.30;98.10;;;;;;5042030;28;20032;-75
2022/04/22 11:28:42;;;;;;;18.35;11.85;;;10.40;97.10;;;;;;5042156;28;20141;-74
2022/04/22 11:31:10;;;;;;;19.20;11.43;;;10.40;97.70;;;;;;5045366;28;20413;-75
2022/04/22 11:34:02;;;;;;;22.58;15.68;;;10.30;95.70;;;;;;5042849;28;20098;-75
2022/04/22 11:36:28;;;;;;;30.35;18.92;;;10.30;97.10;;;;;;5044798;28;20505;-75
2022/04/22 11:38:55;;;;;;;43.08;25.35;;;10.30;98.20;;;;;;5049980;28;20108;-75
2022/04/22 11:41:22;;;;;;;22.35;13.95;;;10.30;97.50;;;;;;5054171;28;20060;-75
2022/04/22 11:43:48;;;;;;;19.90;12.80;;;10.20;98.30;;;;;;5053461;28;20033;-76
2022/04/22 11:46:18;;;;;;;146.13;76.00;;;10.10;99.00;;;;;;5054107;28;20060;-76
2022/04/22 11:48:53;;;;;;;24.33;15.68;;;10.20;99.90;;;;;;5054051;28;20112;-74
2022/04/22 11:51:19;;;;;;;56.33;31.67;;;10.20;99.90;;;;;;5053943;28;20040;-75
2022/04/22 11:53:50;;;;;;;71.25;41.00;;;10.10;99.90;;;;;;5053706;28;20021;-74
2022/04/22 11:56:21;;;;;;;22.98;14.43;;;10.10;99.90;;;;;;5054056;28;20036;-75
2022/04/22 11:58:52;;;;;;;39.40;21.50;;;10.10;99.90;;;;;;5051793;28;20060;-75
2022/04/22 12:06:45;;;;;;;71.05;37.42;;;9.90;99.90;;;;;;5053499;28;20596;-76
2022/04/22 12:09:11;;;;;;;50.05;24.23;;;9.90;99.90;;;;;;5052172;28;20048;-76
2022/04/22 12:11:42;;;;;;;22.55;15.02;;;9.60;99.90;;;;;;5053400;28;20021;-74
2022/04/22 12:14:12;;;;;;;30.40;17.98;;;9.50;99.90;;;;;;5050206;28;20485;-74
2022/04/22 12:16:38;;;;;;;28.92;17.52;;;9.40;99.90;;;;;;5046904;28;20128;-74
2022/04/22 12:19:06;;;;;;;22.02;13.98;;;9.50;99.90;;;;;;5053119;28;20113;-75
2022/04/22 12:21:34;;;;;;;26.15;15.40;;;9.50;99.90;;;;;;5053077;28;20078;-76
2022/04/22 12:24:02;;;;;;;23.88;15.10;;;9.70;99.90;;;;;;5051455;28;20024;-76
2022/04/22 12:26:34;;;;;;;20.65;14.40;;;9.80;99.90;;;;;;5048864;28;20033;-76
2022/04/22 12:29:01;;;;;;;;;;;9.90;99.90;;;;;;5033247;28;20037;-76
2022/04/22 12:31:29;;;;;;;20.45;13.38;;;9.90;99.90;;;;;;5031961;28;19998;-75
2022/04/22 12:34:06;;;;;;;24.60;14.07;;;9.80;99.90;;;;;;5033397;28;20124;-74
2022/04/22 12:36:53;;;;;;;22.80;14.73;;;9.70;99.90;;;;;;5033010;28;20079;-75
2022/04/22 12:39:38;;;;;;;32.88;18.25;;;9.70;99.90;;;;;;5033131;28;20025;-75
2022/04/22 12:42:05;;;;;;;52.83;27.40;;;9.70;99.90;;;;;;5039816;28;20386;-75
2022/04/22 12:44:31;;;;;;;21.67;14.85;;;9.60;99.90;;;;;;5040836;28;20026;-75
2022/04/22 12:52:45;;;;;;;24.08;14.80;;;9.10;99.90;;;;;;5052913;28;20446;-74
2022/04/22 12:55:12;;;;;;;30.52;17.25;;;8.80;99.90;;;;;;5052402;28;20036;-74
2022/04/22 12:57:41;;;;;;;30.70;16.15;;;8.70;99.90;;;;;;5050878;28;20041;-74
2022/04/22 13:00:20;;;;;;;35.83;15.20;;;8.60;99.90;;;;;;5051000;28;20074;-74
2022/04/22 13:02:46;;;;;;;28.58;14.77;;;8.40;99.90;;;;;;5052599;28;20028;-76
2022/04/22 13:05:24;;;;;;;23.92;13.50;;;8.30;99.90;;;;;;5050962;28;20027;-74
2022/04/22 13:07:50;;;;;;;25.00;14.57;;;8.00;99.90;;;;;;5051167;28;20564;-75
2022/04/22 13:10:19;;;;;;;23.70;12.95;;;7.90;99.90;;;;;;5052397;28;20024;-75
2022/04/22 13:12:45;;;;;;;22.17;10.98;;;8.00;99.90;;;;;;5050652;28;20021;-75
2022/04/22 13:15:19;;;;;;;23.60;12.05;;;7.90;99.90;;;;;;5051737;28;20049;-75
2022/04/22 13:17:46;;;;;;;18.50;11.40;;;7.80;99.90;;;;;;5052374;28;20109;-75
2022/04/22 13:20:15;;;;;;;17.80;11.88;;;7.80;99.90;;;;;;5047914;28;20021;-75
2022/04/22 13:22:41;;;;;;;15.98;8.57;;;7.80;99.90;;;;;;5041409;28;20018;-75
2022/04/22 13:25:11;;;;;;;19.13;9.25;;;7.70;99.90;;;;;;5042569;28;20032;-75
2022/04/22 13:27:37;;;;;;;14.35;8.75;;;7.70;99.90;;;;;;5032703;28;20040;-75
2022/04/22 13:30:05;;;;;;;14.15;8.43;;;7.60;99.90;;;;;;5032801;28;20107;-75
2022/04/22 13:32:30;;;;;;;13.95;8.40;;;7.60;99.90;;;;;;5031575;28;20441;-74
2022/04/22 13:34:56;;;;;;;12.55;7.82;;;7.70;99.90;;;;;;5034298;28;20028;-75
2022/04/22 13:37:21;;;;;;;12.10;8.02;;;7.60;99.90;;;;;;5031761;28;20021;-74
2022/04/22 13:39:47;;;;;;;14.63;9.27;;;7.50;99.90;;;;;;5033152;28;20104;-75
2022/04/22 13:42:12;;;;;;;10.18;7.53;;;7.50;99.90;;;;;;5036253;28;20048;-74
2022/04/22 13:52:51;;;;;;;13.05;7.18;;;7.60;99.90;;;;;;5051991;28;20394;-74
2022/04/22 13:55:17;;;;;;;10.63;7.00;;;7.60;99.90;;;;;;5051080;28;20025;-74
2022/04/22 13:57:42;;;;;;;10.98;6.55;;;7.50;99.90;;;;;;5051752;28;20108;-75